Time;durP1;ratioP1;P1;durP2;ratioP2;P2;SDS_P1;SDS_P2;PMS_P1;PMS_P2;Temp;Humidity;BMP_temperature;BMP_pressure;BME280_temperature;BME280_humidity;BME280_pressure;Samples;Min_cycle;Max_cycle;Signal;HPM_P1;HPM_P2
2021/03/01 00:00:47;;;;;;;24.25;15.10;;;3.80;71.50;;;2.81;56.29;96386.47;5077100;28;20214;-82
2021/03/01 00:03:14;;;;;;;22.73;14.70;;;3.80;71.50;;;2.79;55.93;96385.72;5074035;28;20191;-82
2021/03/01 00:05:40;;;;;;;25.20;15.73;;;3.90;71.60;;;2.74;56.21;96378.28;5056789;28;20701;-82
2021/03/01 00:08:09;;;;;;;28.17;16.95;;;3.80;71.60;;;2.75;56.89;96381.69;5057453;28;20661;-82
2021/03/01 00:10:35;;;;;;;24.65;16.98;;;3.80;71.50;;;2.76;56.78;96386.78;5057011;28;20227;-81
2021/03/01 00:13:02;;;;;;;25.13;15.43;;;3.80;71.50;;;2.75;56.25;96385.13;5073904;28;20195;-82
2021/03/01 00:15:29;;;;;;;24.08;15.77;;;3.80;71.50;;;2.73;56.54;96389.56;5073399;28;20242;-82
2021/03/01 00:17:56;;;;;;;23.92;15.82;;;3.80;71.50;;;2.72;56.01;96386.16;5088917;28;20194;-82
2021/03/01 00:20:23;;;;;;;22.13;15.30;;;3.80;71.50;;;2.67;55.52;96383.06;5076919;28;20225;-81
2021/03/01 00:22:50;;;;;;;20.67;13.30;;;3.80;71.50;;;2.67;55.57;96382.22;5077179;28;20195;-81
2021/03/01 00:25:17;;;;;;;25.02;16.35;;;3.70;71.40;;;2.55;56.33;96373.53;5075087;28;20221;-81
2021/03/01 00:27:44;;;;;;;27.23;16.70;;;3.70;71.50;;;2.62;56.45;96390.31;5076964;28;20252;-82
2021/03/01 00:30:11;;;;;;;27.05;17.65;;;3.70;71.50;;;2.61;57.10;96374.88;5069495;28;20192;-81
2021/03/01 00:32:38;;;;;;;27.65;17.20;;;3.70;71.50;;;2.62;56.71;96379.13;5082066;28;20232;-82
2021/03/01 00:35:09;;;;;;;28.27;18.88;;;3.70;71.50;;;2.61;57.93;96380.06;5061941;28;20199;-81
2021/03/01 00:37:37;;;;;;;26.95;18.20;;;3.70;72.00;;;2.61;58.47;96382.66;5056845;28;20604;-81
2021/03/01 00:40:06;;;;;;;27.95;17.67;;;3.80;72.20;;;2.62;58.75;96376.53;5068455;28;20265;-82
2021/03/01 00:42:33;;;;;;;30.55;16.77;;;3.70;72.50;;;2.60;58.91;96363.69;5073771;28;20195;-81
2021/03/01 00:45:00;;;;;;;30.70;18.73;;;3.70;72.70;;;2.58;59.68;96365.56;5061808;28;20199;-81
2021/03/01 00:47:28;;;;;;;28.27;18.80;;;3.70;73.00;;;2.60;59.98;96360.25;5073092;28;20247;-82
2021/03/01 00:49:55;;;;;;;30.90;19.92;;;3.70;73.30;;;2.62;60.25;96363.59;5069701;28;20728;-82
2021/03/01 00:52:22;;;;;;;28.38;18.25;;;3.70;73.30;;;2.62;59.87;96363.59;5060092;28;20232;-82
2021/03/01 00:54:49;;;;;;;28.67;18.75;;;3.70;73.30;;;2.56;59.94;96357.06;5076587;28;20229;-82
2021/03/01 00:57:16;;;;;;;33.00;19.48;;;3.70;73.40;;;2.60;60.32;96362.84;5059896;28;20389;-81
2021/03/01 00:59:42;;;;;;;30.65;19.23;;;3.70;73.60;;;2.57;60.40;96358.72;5059822;28;20202;-82
2021/03/01 01:02:11;;;;;;;33.63;19.40;;;3.70;73.70;;;2.55;60.52;96355.41;5076036;28;20218;-81
2021/03/01 01:04:52;;;;;;;30.55;19.50;;;3.70;73.70;;;2.53;60.50;96363.28;5077995;28;20210;-82
2021/03/01 01:07:20;;;;;;;30.27;19.27;;;3.60;73.80;;;2.52;60.51;96356.44;5075859;28;20222;-83
2021/03/01 01:09:46;;;;;;;30.48;18.75;;;3.60;73.60;;;2.50;60.39;96350.56;5076490;28;20282;-82
2021/03/01 01:12:13;;;;;;;30.77;18.52;;;3.60;73.70;;;2.53;60.15;96352.91;5092659;28;20230;-82
2021/03/01 01:14:40;;;;;;;33.28;19.13;;;3.60;73.70;;;2.50;60.67;96350.56;5076468;28;20187;-82
2021/03/01 01:17:07;;;;;;;33.00;19.33;;;3.60;73.80;;;2.53;60.42;96347.75;5076233;28;20227;-82
2021/03/01 01:19:34;;;;;;;33.92;20.35;;;3.60;73.80;;;2.52;60.89;96342.69;5076034;28;20191;-82
2021/03/01 01:22:01;;;;;;;33.42;19.77;;;3.60;74.10;;;2.49;61.24;96340.28;5075206;28;20280;-82
2021/03/01 01:24:27;;;;;;;35.03;20.50;;;3.70;74.40;;;2.53;60.95;96341.75;5076226;28;20236;-81
2021/03/01 01:26:54;;;;;;;32.55;19.52;;;3.60;74.30;;;2.53;61.21;96336.56;5059218;28;20230;-81
2021/03/01 01:29:21;;;;;;;34.55;20.70;;;3.60;74.40;;;2.50;61.30;96329.84;5085070;28;20613;-82
2021/03/01 01:31:47;;;;;;;34.22;20.88;;;3.60;74.50;;;2.56;61.17;96336.34;5075465;28;20234;-82
2021/03/01 01:34:14;;;;;;;34.35;20.80;;;3.60;74.60;;;2.57;61.38;96343.19;5083034;28;20206;-81
2021/03/01 01:36:41;;;;;;;34.65;20.48;;;3.70;74.60;;;2.57;61.51;96340.59;5055682;28;20265;-82
2021/03/01 01:39:07;;;;;;;32.80;20.48;;;3.60;74.70;;;2.50;61.50;96335.03;5055360;28;20199;-82
2021/03/01 01:41:34;;;;;;;34.28;21.20;;;3.60;74.70;;;2.52;61.73;96330.53;5055627;28;20207;-82
2021/03/01 01:44:01;;;;;;;31.33;20.48;;;3.60;74.80;;;2.48;61.28;96334.28;5055677;28;20199;-81
2021/03/01 01:46:28;;;;;;;33.75;21.48;;;3.60;74.70;;;2.48;61.58;96341.22;5038517;28;20223;-82
2021/03/01 01:48:55;;;;;;;36.92;20.45;;;3.60;74.80;;;2.46;60.88;96332.75;5055594;28;20207;-81
2021/03/01 01:51:21;;;;;;;35.30;22.13;;;3.50;74.50;;;2.43;61.09;96326.03;5038709;28;20264;-82
2021/03/01 01:53:48;;;;;;;33.03;20.92;;;3.50;74.50;;;2.37;61.60;96322.09;5055346;28;20294;-81
2021/03/01 01:56:15;;;;;;;35.67;21.77;;;3.50;74.70;;;2.40;61.49;96324.47;5055276;28;20215;-81
2021/03/01 01:58:42;;;;;;;37.33;21.42;;;3.50;74.70;;;2.34;61.91;96322.28;5055471;28;20240;-82
2021/03/01 02:01:09;;;;;;;40.42;22.42;;;3.50;74.80;;;2.28;61.77;96314.94;5071589;28;20223;-82
2021/03/01 02:03:51;;;;;;;35.28;21.33;;;3.50;74.90;;;2.27;61.48;96325.41;5038691;28;20196;-82
2021/03/01 02:06:42;;;;;;;33.80;20.17;;;3.40;74.80;;;2.20;61.91;96325.00;5055125;28;20581;-81
2021/03/01 02:09:55;;;;;;;34.67;20.85;;;3.40;74.70;;;2.13;61.72;96322.00;5057846;28;20261;-82
2021/03/01 02:13:02;;;;;;;36.08;22.45;;;3.40;74.90;;;2.06;61.95;96325.94;5055075;28;20264;-82
2021/03/01 02:15:52;;;;;;;36.42;21.25;;;3.30;74.90;;;2.02;62.00;96324.50;5054719;28;20223;-81
2021/03/01 02:18:19;;;;;;;35.05;21.40;;;3.30;75.00;;;1.97;62.37;96313.63;5038440;28;20199;-82
2021/03/01 02:20:47;;;;;;;38.30;22.15;;;3.20;75.00;;;1.95;62.42;96307.72;5071559;28;20769;-82
2021/03/01 02:23:16;;;;;;;36.40;22.05;;;3.20;75.10;;;1.90;62.50;96295.94;5055279;28;20313;-81
2021/03/01 02:25:55;;;;;;;36.78;22.65;;;3.10;75.10;;;1.85;62.56;96303.16;5071318;28;20219;-82
2021/03/01 02:28:29;;;;;;;37.75;23.05;;;3.10;75.30;;;1.89;62.51;96314.13;5054789;28;20199;-82
2021/03/01 02:30:58;;;;;;;37.55;22.73;;;3.10;75.40;;;1.88;62.94;96309.88;5054634;28;20225;-82
2021/03/01 02:33:32;;;;;;;36.35;22.50;;;3.10;75.50;;;1.87;63.09;96313.44;5056600;28;20568;-81
2021/03/01 02:36:06;;;;;;;40.65;23.17;;;3.10;75.70;;;1.85;63.01;96310.94;5074877;28;20244;-81
2021/03/01 02:38:35;;;;;;;37.35;23.67;;;3.00;75.70;;;1.84;63.10;96314.44;5058778;28;20664;-82
2021/03/01 02:41:02;;;;;;;41.70;23.13;;;3.00;75.70;;;1.83;63.54;96299.03;5058063;28;20245;-82
2021/03/01 02:43:31;;;;;;;39.05;23.10;;;3.10;76.10;;;1.76;63.19;96302.03;5091384;28;20199;-82
2021/03/01 02:45:59;;;;;;;35.63;22.38;;;3.00;76.00;;;1.81;63.43;96306.91;5074430;28;20228;-81
2021/03/01 02:48:28;;;;;;;36.90;21.85;;;3.00;76.10;;;1.79;63.38;96310.53;5074833;28;20226;-82
2021/03/01 02:50:55;;;;;;;36.05;21.95;;;2.90;75.90;;;1.80;63.23;96309.59;5074788;28;20238;-81
2021/03/01 02:53:26;;;;;;;36.38;21.40;;;2.90;75.90;;;1.76;63.22;96314.97;5075056;28;20300;-82
2021/03/01 02:55:53;;;;;;;37.05;23.17;;;2.90;76.00;;;1.72;63.46;96310.09;5091376;28;20207;-81
2021/03/01 02:58:24;;;;;;;37.63;22.23;;;2.90;76.30;;;1.74;63.01;96316.81;5057152;28;20584;-82
2021/03/01 03:00:53;;;;;;;33.85;21.35;;;2.90;75.90;;;1.74;63.04;96321.16;5053311;28;20310;-82
2021/03/01 03:03:20;;;;;;;35.03;22.27;;;2.90;75.90;;;1.66;63.05;96321.69;5071052;28;20205;-82
2021/03/01 03:05:48;;;;;;;34.38;20.80;;;2.90;75.80;;;1.70;62.64;96328.31;5067171;28;20219;-81
2021/03/01 03:08:15;;;;;;;34.17;20.73;;;2.90;75.80;;;1.65;62.80;96321.75;5074482;28;20228;-82
2021/03/01 03:10:45;;;;;;;35.72;22.70;;;2.90;75.70;;;1.67;63.31;96336.28;5058199;28;20214;-81
2021/03/01 03:13:12;;;;;;;40.22;22.85;;;2.80;75.80;;;1.65;63.13;96321.75;5074500;28;20557;-81
2021/03/01 03:15:41;;;;;;;33.05;20.65;;;2.80;76.00;;;1.62;62.78;96316.81;5090846;28;20206;-82
2021/03/01 03:18:12;;;;;;;40.88;24.42;;;2.80;75.70;;;1.63;63.36;96339.16;5058241;28;20698;-81
2021/03/01 03:20:39;;;;;;;41.88;23.48;;;2.80;76.10;;;1.62;63.96;96330.56;5074517;28;20226;-81
2021/03/01 03:23:08;;;;;;;40.20;23.50;;;2.80;76.30;;;1.65;63.72;96345.03;5091526;28;20194;-82
2021/03/01 03:25:35;;;;;;;44.70;24.67;;;2.70;76.20;;;1.66;63.59;96344.13;5074689;28;20234;-82
2021/03/01 03:28:07;;;;;;;41.08;23.25;;;2.80;76.30;;;1.68;62.68;96339.69;5074481;28;20199;-82
2021/03/01 03:30:34;;;;;;;40.88;22.88;;;2.70;76.10;;;1.69;62.58;96343.94;5073938;28;20293;-81
2021/03/01 03:33:03;;;;;;;34.80;21.98;;;2.80;75.90;;;1.66;62.08;96338.94;5090994;28;20191;-82
2021/03/01 03:35:31;;;;;;;35.58;22.30;;;2.70;75.80;;;1.64;62.11;96336.47;5074115;28;20231;-81
2021/03/01 03:38:06;;;;;;;37.65;21.30;;;2.80;75.80;;;1.64;62.01;96346.81;5091070;28;20286;-81
2021/03/01 03:40:33;;;;;;;36.95;21.13;;;2.70;75.80;;;1.63;61.71;96339.16;5074414;28;20214;-81
2021/03/01 03:43:02;;;;;;;34.97;20.70;;;2.70;75.50;;;1.55;61.81;96339.66;5057458;28;20198;-82
2021/03/01 03:45:30;;;;;;;34.75;21.30;;;2.70;75.40;;;1.59;62.37;96354.06;5059539;28;20230;-82
2021/03/01 03:48:03;;;;;;;40.47;22.05;;;2.70;75.50;;;1.59;62.10;96364.41;5077790;28;20186;-81
2021/03/01 03:50:32;;;;;;;40.88;23.30;;;2.70;75.60;;;1.62;62.06;96358.19;5077722;28;20210;-81
2021/03/01 03:53:05;;;;;;;39.17;22.10;;;2.70;75.50;;;1.63;61.45;96371.00;5077620;28;20679;-81
2021/03/01 03:55:34;;;;;;;40.15;21.60;;;2.70;75.50;;;1.60;61.54;96372.06;5094239;28;20584;-80
2021/03/01 03:58:06;;;;;;;32.60;19.33;;;2.70;75.30;;;1.58;60.89;96376.47;5077610;28;20199;-82
2021/03/01 04:00:35;;;;;;;41.33;22.63;;;2.60;75.10;;;1.50;60.82;96360.66;5077244;28;20599;-81
2021/03/01 04:03:11;;;;;;;39.85;22.38;;;2.60;75.10;;;1.52;60.90;96370.91;5078636;28;20261;-81
2021/03/01 04:05:45;;;;;;;40.13;23.05;;;2.70;75.20;;;1.50;60.97;96375.31;5060336;28;20279;-80
2021/03/01 04:08:14;;;;;;;39.92;21.95;;;2.60;75.20;;;1.51;60.85;96382.16;5069530;28;20208;-80
2021/03/01 04:10:47;;;;;;;34.65;20.33;;;2.60;75.00;;;1.47;60.51;96378.94;5084701;28;20219;-81
2021/03/01 04:13:16;;;;;;;34.17;19.08;;;2.60;75.10;;;1.43;60.20;96387.84;5068363;28;20216;-80
2021/03/01 04:15:50;;;;;;;33.63;18.20;;;2.60;74.80;;;1.36;60.00;96387.38;5093455;28;20226;-81
2021/03/01 04:18:26;;;;;;;27.88;17.35;;;2.50;75.00;;;1.31;59.84;96393.75;5093679;28;20218;-81
2021/03/01 04:20:55;;;;;;;31.98;18.63;;;2.50;74.80;;;1.23;60.02;96383.91;5093779;28;20210;-80
2021/03/01 04:23:24;;;;;;;41.38;22.83;;;2.50;74.60;;;1.20;60.24;96390.13;5060338;28;20566;-81
2021/03/01 04:25:52;;;;;;;39.38;21.70;;;2.50;74.70;;;1.17;60.14;96381.72;5076163;28;20222;-81
2021/03/01 04:28:20;;;;;;;38.03;21.25;;;2.40;74.60;;;1.16;60.30;96383.50;5060159;28;20247;-82
2021/03/01 04:30:49;;;;;;;34.40;20.00;;;2.30;74.70;;;1.15;60.13;96384.41;5076443;28;20331;-81
2021/03/01 04:33:17;;;;;;;38.85;22.17;;;2.40;74.80;;;1.12;60.62;96382.00;5060032;28;20203;-80
2021/03/01 04:35:47;;;;;;;42.58;24.05;;;2.30;74.80;;;1.16;60.39;96385.25;5093313;28;20222;-81
2021/03/01 04:38:14;;;;;;;36.83;21.30;;;2.30;75.00;;;1.18;60.52;96391.16;5057735;28;20668;-79
2021/03/01 04:40:41;;;;;;;40.47;22.27;;;2.30;74.90;;;1.18;60.40;96383.41;5076640;28;20562;-81
2021/03/01 04:43:11;;;;;;;36.08;20.40;;;2.30;75.00;;;1.20;60.27;96387.53;5078207;28;20223;-81
2021/03/01 04:45:44;;;;;;;34.45;20.77;;;2.30;75.00;;;1.18;59.66;96381.63;5058021;28;20276;-81
2021/03/01 04:48:13;;;;;;;35.20;19.05;;;2.30;75.00;;;1.14;59.75;96381.94;5091097;28;20668;-80
2021/03/01 04:50:41;;;;;;;34.92;20.58;;;2.30;74.80;;;1.12;59.90;96384.59;5092212;28;20287;-80
2021/03/01 04:53:12;;;;;;;37.95;21.50;;;2.30;74.80;;;1.10;60.00;96386.47;5063564;28;20206;-80
2021/03/01 04:55:40;;;;;;;40.20;23.52;;;2.20;74.90;;;1.06;60.45;96382.41;5037253;28;20784;-81
2021/03/01 04:58:09;;;;;;;41.35;24.30;;;2.20;75.00;;;1.05;60.98;96379.00;5054545;28;20245;-82
2021/03/01 05:00:37;;;;;;;42.00;24.30;;;2.20;75.00;;;1.08;61.07;96378.78;5054293;28;20219;-82
2021/03/01 05:03:06;;;;;;;64.28;40.40;;;2.20;75.20;;;1.10;61.19;96384.69;5070412;28;20567;-82
2021/03/01 05:05:34;;;;;;;46.55;27.35;;;2.20;75.20;;;1.11;60.66;96388.09;5091442;28;20218;-81
2021/03/01 05:08:05;;;;;;;40.72;23.17;;;2.20;75.10;;;1.15;60.35;96388.75;5074989;28;20695;-82
2021/03/01 05:10:33;;;;;;;41.35;23.70;;;2.20;75.10;;;1.11;60.42;96401.03;5059583;28;20222;-81
2021/03/01 05:13:01;;;;;;;42.90;23.23;;;2.20;75.00;;;1.11;59.89;96396.69;5076121;28;20203;-82
2021/03/01 05:15:28;;;;;;;56.30;28.50;;;2.30;75.10;;;1.10;60.30;96392.47;5075882;28;20233;-81
2021/03/01 05:17:57;;;;;;;62.78;29.83;;;2.20;75.00;;;1.08;59.72;96396.06;5076087;28;20194;-82
2021/03/01 05:20:24;;;;;;;54.85;26.88;;;2.20;75.00;;;1.06;59.70;96392.75;5076025;28;20214;-81
2021/03/01 05:22:51;;;;;;;42.75;24.23;;;2.20;74.80;;;1.02;60.06;96394.69;5059429;28;20273;-82
2021/03/01 05:25:18;;;;;;;37.40;20.65;;;2.10;74.70;;;0.98;59.48;96394.97;5093856;28;20195;-82
2021/03/01 05:27:44;;;;;;;38.28;22.00;;;2.10;74.70;;;0.90;59.73;96390.28;5059435;28;20226;-81
2021/03/01 05:30:12;;;;;;;35.05;19.23;;;2.10;74.70;;;0.92;59.80;96401.38;5059138;28;20280;-81
2021/03/01 05:32:39;;;;;;;32.33;18.05;;;2.10;74.70;;;0.89;59.84;96402.38;5058822;28;20259;-81
2021/03/01 05:35:08;;;;;;;32.92;18.60;;;2.10;74.70;;;0.85;59.77;96400.09;5075711;28;20241;-81
2021/03/01 05:37:35;;;;;;;32.42;18.92;;;2.00;74.70;;;0.83;59.84;96392.44;5073891;28;20190;-82
2021/03/01 05:40:04;;;;;;;36.47;20.65;;;2.00;74.70;;;0.85;60.18;96397.50;5059061;28;20195;-82
2021/03/01 05:42:34;;;;;;;40.65;23.63;;;2.00;74.90;;;0.86;60.99;96404.31;5075645;28;20229;-82
2021/03/01 05:45:05;;;;;;;41.70;22.83;;;2.00;75.00;;;0.82;61.48;96395.94;5075640;28;20199;-83
2021/03/01 05:47:38;;;;;;;39.05;23.33;;;2.00;75.10;;;0.87;61.77;96401.63;5058713;28;20294;-81
2021/03/01 05:50:09;;;;;;;34.00;22.65;;;2.00;75.40;;;0.87;62.62;96390.50;5075112;28;20197;-82
2021/03/01 05:52:44;;;;;;;42.55;24.90;;;2.00;75.60;;;0.86;63.33;96392.22;5092417;28;20183;-81
2021/03/01 05:55:12;;;;;;;43.20;25.10;;;2.10;76.10;;;0.87;63.93;96401.63;5075430;28;20263;-81
2021/03/01 05:57:39;;;;;;;46.42;25.75;;;2.00;76.30;;;0.92;64.35;96406.53;5044704;28;20646;-82
2021/03/01 06:00:08;;;;;;;41.42;25.08;;;2.10;76.70;;;0.94;64.06;96404.66;5055272;28;20199;-81
2021/03/01 06:02:35;;;;;;;38.35;23.00;;;2.10;76.70;;;0.99;63.79;96414.72;5075159;28;20190;-81
2021/03/01 06:05:04;;;;;;;39.28;23.42;;;2.10;76.70;;;1.01;63.25;96405.94;5072747;28;20218;-82
2021/03/01 06:07:32;;;;;;;39.03;23.73;;;2.10;76.60;;;1.07;62.83;96409.91;5069376;28;20340;-82
2021/03/01 06:10:02;;;;;;;34.58;21.45;;;2.20;76.50;;;1.12;62.15;96425.94;5037748;28;20195;-82
2021/03/01 06:12:28;;;;;;;33.25;20.20;;;2.10;76.30;;;1.13;62.06;96427.59;5053664;28;20286;-83
2021/03/01 06:14:56;;;;;;;39.22;21.50;;;2.10;76.10;;;1.16;62.13;96419.69;5038603;28;20294;-83
2021/03/01 06:17:23;;;;;;;37.15;21.95;;;2.20;76.20;;;1.11;62.01;96414.78;5054853;28;20215;-82
2021/03/01 06:19:53;;;;;;;42.90;23.77;;;2.20;76.20;;;1.17;62.04;96421.31;5054417;28;20245;-83
2021/03/01 06:22:44;;;;;;;41.92;23.90;;;2.20;76.20;;;1.19;62.23;96426.41;5052431;28;20230;-82
2021/03/01 06:25:15;;;;;;;38.88;23.00;;;2.20;76.40;;;1.24;62.91;96427.75;5086478;28;20203;-82
2021/03/01 06:27:45;;;;;;;43.97;24.90;;;2.30;76.40;;;1.28;63.11;96428.41;5069993;28;20215;-82
2021/03/01 06:30:13;;;;;;;47.17;26.42;;;2.30;76.60;;;1.32;64.01;96441.94;5070814;28;20199;-82
2021/03/01 06:32:40;;;;;;;43.63;26.13;;;2.30;76.80;;;1.35;63.61;96431.44;5064761;28;20210;-83
2021/03/01 06:35:33;;;;;;;43.72;25.75;;;2.40;77.00;;;1.37;63.73;96437.34;5061842;28;20198;-83
2021/03/01 06:38:22;;;;;;;42.33;24.60;;;2.40;78.00;;;1.39;63.94;96435.47;5056059;28;20229;-83
2021/03/01 06:41:18;;;;;;;43.45;25.83;;;2.40;77.20;;;1.41;63.74;96438.81;5066186;28;20217;-81
2021/03/01 06:43:58;;;;;;;46.00;26.13;;;2.40;77.30;;;1.38;64.45;96432.06;5053039;28;20195;-82
2021/03/01 06:46:29;;;;;;;46.75;26.73;;;2.50;77.50;;;1.42;64.69;96435.28;5074632;28;20233;-83
2021/03/01 06:49:14;;;;;;;47.78;26.40;;;2.50;78.50;;;1.44;64.64;96436.00;5075022;28;20191;-83
2021/03/01 06:51:41;;;;;;;50.45;28.00;;;2.50;77.70;;;1.53;64.16;96438.03;5072135;28;20218;-83
2021/03/01 06:54:12;;;;;;;41.67;23.40;;;2.50;77.50;;;1.60;63.63;96449.63;5076921;28;20593;-82
2021/03/01 06:56:42;;;;;;;49.72;27.52;;;2.50;77.40;;;1.62;63.65;96440.94;5065978;28;20222;-83
2021/03/01 06:59:19;;;;;;;57.85;30.58;;;2.60;77.50;;;1.70;64.17;96455.03;5064349;28;20274;-83
2021/03/01 07:02:00;;;;;;;46.85;26.65;;;2.60;77.60;;;1.73;63.81;96448.84;5068024;28;20214;-83
2021/03/01 07:04:30;;;;;;;48.33;27.67;;;2.70;77.60;;;1.70;64.66;96452.47;5071985;28;20649;-83
2021/03/01 07:07:02;;;;;;;47.40;26.95;;;2.70;77.80;;;1.69;64.69;96445.63;5062438;28;20698;-83
2021/03/01 07:09:32;;;;;;;48.35;27.88;;;2.70;77.90;;;1.72;64.93;96452.34;5065731;28;20240;-82
2021/03/01 07:12:00;;;;;;;50.03;27.63;;;2.70;78.00;;;1.72;65.00;96458.38;5042180;28;20234;-82
2021/03/01 07:14:28;;;;;;;50.67;29.08;;;2.70;78.00;;;1.74;64.77;96472.00;5063163;28;20192;-83
2021/03/01 07:16:58;;;;;;;44.70;25.75;;;2.80;78.00;;;1.81;64.26;96480.22;5051450;28;20233;-82
2021/03/01 07:19:32;;;;;;;48.15;26.05;;;2.80;77.80;;;1.87;63.98;96487.59;5068820;28;20680;-83
2021/03/01 07:22:06;;;;;;;51.17;26.48;;;2.80;77.80;;;1.95;63.85;96481.91;5069010;28;20235;-83
2021/03/01 07:24:33;;;;;;;51.58;27.63;;;2.80;77.60;;;1.98;63.64;96476.56;5070436;28;20657;-83
2021/03/01 07:27:04;;;;;;;42.65;25.52;;;2.90;77.70;;;2.07;63.48;96483.69;5049024;28;20223;-83
2021/03/01 07:29:36;;;;;;;43.28;25.00;;;2.90;77.60;;;2.13;63.05;96487.66;5052654;28;20565;-82
2021/03/01 07:32:06;;;;;;;44.30;24.77;;;2.90;77.50;;;2.20;63.02;96480.34;5064424;28;20214;-82
2021/03/01 07:34:35;;;;;;;50.13;26.73;;;3.00;77.50;;;2.27;62.92;96476.41;5056673;28;20822;-82
2021/03/01 07:37:04;;;;;;;47.38;26.85;;;3.00;77.50;;;2.27;62.75;96481.59;5090525;28;20214;-82
2021/03/01 07:39:32;;;;;;;48.00;26.88;;;3.10;77.50;;;2.27;63.11;96488.50;5067082;28;20263;-83
2021/03/01 07:42:00;;;;;;;47.28;27.55;;;3.10;77.40;;;2.26;63.42;96486.84;5056104;28;20227;-82
2021/03/01 07:44:34;;;;;;;50.95;27.38;;;3.20;77.50;;;2.28;63.02;96490.16;5087140;28;20205;-83
2021/03/01 07:47:04;;;;;;;45.75;26.00;;;3.20;78.30;;;2.30;63.33;96499.50;5075517;28;20320;-84
2021/03/01 07:49:48;;;;;;;47.33;27.00;;;3.20;77.50;;;2.33;62.97;96491.53;5057799;28;20210;-83
2021/03/01 07:52:17;;;;;;;49.22;26.65;;;3.20;77.50;;;2.45;63.00;96491.66;5057350;28;20254;-83
2021/03/01 07:55:05;;;;;;;45.85;24.23;;;3.20;77.50;;;2.52;62.92;96495.47;5072847;28;20203;-82
2021/03/01 07:57:38;;;;;;;43.65;24.00;;;3.30;77.60;;;2.62;62.83;96511.25;5072927;28;20214;-83
2021/03/01 08:00:35;;;;;;;44.25;22.58;;;3.40;77.70;;;2.76;62.76;96515.47;5073235;28;20192;-83
2021/03/01 08:03:37;;;;;;;41.85;22.67;;;3.50;77.60;;;2.88;62.52;96519.81;5067081;28;20565;-83
2021/03/01 08:06:04;;;;;;;42.30;23.95;;;3.50;77.60;;;2.96;62.54;96512.38;5058768;28;20238;-84
2021/03/01 08:08:45;;;;;;;37.83;22.70;;;3.60;77.60;;;3.06;62.21;96519.53;5060441;28;20644;-85
2021/03/01 08:11:12;;;;;;;37.33;20.80;;;3.70;77.60;;;3.10;62.30;96506.25;5075536;28;20707;-84
2021/03/01 08:13:40;;;;;;;40.63;23.45;;;3.70;77.50;;;3.20;61.89;96522.00;5057456;28;20245;-84
2021/03/01 08:16:23;;;;;;;42.13;23.58;;;3.80;77.50;;;3.29;61.57;96520.53;5041870;28;20272;-85
2021/03/01 08:18:52;;;;;;;44.63;23.25;;;3.90;77.40;;;3.32;61.59;96518.56;5056698;28;20721;-84
2021/03/01 08:21:20;;;;;;;40.67;22.58;;;4.00;77.30;;;3.38;61.17;96514.69;5074709;28;20300;-84
2021/03/01 08:23:47;;;;;;;39.70;22.02;;;4.00;77.20;;;3.40;61.38;96512.81;5078080;28;20203;-84
2021/03/01 08:26:34;;;;;;;38.85;22.05;;;4.10;77.10;;;3.40;61.26;96504.22;5077751;28;20325;-84
2021/03/01 08:29:22;;;;;;;36.38;21.45;;;4.10;77.10;;;3.43;61.26;96507.44;5094626;28;20649;-83
2021/03/01 08:31:50;;;;;;;41.22;22.15;;;4.10;76.90;;;3.45;61.42;96507.31;5047782;28;20708;-84
2021/03/01 08:34:24;;;;;;;41.05;22.60;;;4.20;77.00;;;3.46;61.44;96516.75;5065058;28;20264;-83
2021/03/01 08:36:51;;;;;;;39.05;21.58;;;4.20;76.90;;;3.48;61.22;96512.31;5070384;28;20223;-82
2021/03/01 08:39:59;;;;;;;35.88;21.17;;;4.20;76.90;;;3.53;61.40;96507.63;5042109;28;20465;-83
2021/03/01 08:43:15;;;;;;;42.72;22.15;;;4.30;77.10;;;3.63;61.06;96512.97;5054532;28;20893;-83
2021/03/01 08:45:45;;;;;;;40.60;21.98;;;4.30;77.20;;;3.65;61.46;96511.94;5062983;28;20305;-84
2021/03/01 08:48:20;;;;;;;41.10;23.55;;;4.30;77.10;;;3.80;60.95;96516.97;5063285;28;20222;-84
2021/03/01 08:50:50;;;;;;;39.83;22.80;;;4.40;77.20;;;3.88;61.37;96519.81;5067667;28;20246;-83
2021/03/01 08:53:25;;;;;;;43.22;23.08;;;4.50;77.20;;;3.94;61.35;96510.78;5065375;28;20199;-84
2021/03/01 08:55:54;;;;;;;42.10;23.90;;;4.50;77.30;;;4.02;61.11;96516.25;5051856;28;20210;-83
2021/03/01 08:58:23;;;;;;;40.75;22.40;;;4.60;77.30;;;4.06;61.27;96514.25;5051391;28;20208;-84
2021/03/01 09:01:07;;;;;;;41.63;23.02;;;4.60;77.20;;;4.17;61.04;96522.09;5066340;28;20222;-83
2021/03/01 09:03:38;;;;;;;47.42;26.15;;;4.70;77.20;;;4.29;60.64;96522.97;5081546;28;20226;-83
2021/03/01 09:06:20;;;;;;;38.47;21.15;;;4.80;77.10;;;4.36;60.43;96524.16;5061788;28;20227;-83
2021/03/01 09:08:55;;;;;;;41.42;23.13;;;4.90;77.10;;;4.38;60.20;96519.69;5077946;28;20191;-83
2021/03/01 09:11:28;;;;;;;39.30;22.25;;;4.90;76.90;;;4.48;60.55;96520.66;5065729;28;20301;-83
2021/03/01 09:13:59;;;;;;;43.60;25.13;;;5.00;77.00;;;4.55;60.47;96525.41;5054486;28;20200;-81
2021/03/01 09:16:28;;;;;;;43.63;25.60;;;5.10;76.90;;;4.65;60.26;96526.34;5078512;28;20218;-83
2021/03/01 09:19:03;;;;;;;41.53;23.88;;;5.10;76.90;;;4.74;60.29;96522.25;5060404;28;20199;-82
2021/03/01 09:21:34;;;;;;;43.00;23.42;;;5.20;77.00;;;4.84;60.30;96525.81;5060848;28;20634;-82
2021/03/01 09:24:01;;;;;;;37.83;22.30;;;5.30;76.90;;;4.92;60.05;96533.84;5064165;28;20724;-82
2021/03/01 09:26:37;;;;;;;41.35;22.40;;;5.30;76.90;;;4.97;59.92;96523.13;5063995;28;20226;-82
2021/03/01 09:29:12;;;;;;;35.50;20.40;;;5.40;76.90;;;5.08;59.96;96522.31;5081688;28;20227;-83
2021/03/01 09:31:50;;;;;;;33.35;19.77;;;5.50;77.00;;;5.23;59.61;96526.31;5071071;28;20264;-82
2021/03/01 09:34:19;;;;;;;33.63;19.30;;;5.50;76.80;;;5.33;60.01;96526.41;5050513;28;20218;-82
2021/03/01 09:37:08;;;;;;;34.15;19.33;;;5.60;76.90;;;5.44;59.52;96523.81;5059614;28;20240;-82
2021/03/01 09:39:38;;;;;;;30.73;18.38;;;5.70;77.00;;;5.56;59.61;96521.22;5052044;28;20203;-83
2021/03/01 09:42:05;;;;;;;33.55;20.42;;;5.80;76.90;;;5.64;59.38;96515.38;5065929;28;20219;-83
2021/03/01 09:44:36;;;;;;;36.20;22.15;;;5.90;76.90;;;5.67;59.26;96510.75;5061289;28;20202;-84
2021/03/01 09:47:06;;;;;;;35.55;20.95;;;6.00;76.80;;;5.75;59.40;96508.38;5053568;28;20229;-83
2021/03/01 09:49:35;;;;;;;39.05;21.50;;;6.10;76.70;;;5.86;59.00;96512.75;5065945;28;20217;-83
2021/03/01 09:52:03;;;;;;;37.08;21.95;;;6.20;76.70;;;5.95;59.33;96511.16;5052806;28;20222;-83
2021/03/01 09:54:31;;;;;;;33.53;20.15;;;6.20;76.70;;;6.04;59.02;96509.63;5059837;28;20708;-84
2021/03/01 09:57:05;;;;;;;40.17;23.27;;;6.40;76.70;;;6.10;59.09;96509.13;5055722;28;20234;-84
2021/03/01 09:59:38;;;;;;;37.97;22.08;;;6.40;76.60;;;6.17;59.30;96510.28;5090917;28;20247;-83
2021/03/01 10:02:18;;;;;;;33.58;19.67;;;6.60;76.70;;;6.30;58.99;96510.13;5073439;28;20227;-84
2021/03/01 10:04:46;;;;;;;31.23;18.70;;;6.60;76.70;;;6.43;59.14;96515.16;5061623;28;20246;-83
2021/03/01 10:07:34;;;;;;;30.80;18.77;;;6.70;76.70;;;6.53;58.83;96510.00;5092984;28;20219;-84
2021/03/01 10:10:13;;;;;;;32.80;18.38;;;6.80;76.70;;;6.65;59.15;96510.78;5059169;28;20305;-85
2021/03/01 10:12:47;;;;;;;30.35;18.52;;;6.80;77.50;;;6.79;58.58;96507.03;5048599;28;20199;-84
2021/03/01 10:15:22;;;;;;;31.02;18.20;;;6.90;76.70;;;6.90;58.69;96512.16;5071070;28;20281;-83
2021/03/01 10:18:11;;;;;;;30.80;19.33;;;7.00;76.70;;;7.03;58.39;96509.31;5057395;28;20203;-84
2021/03/01 10:21:06;;;;;;;27.80;17.85;;;7.20;76.70;;;7.18;58.51;96518.47;5074936;28;20569;-83
2021/03/01 10:23:39;;;;;;;30.58;18.23;;;7.30;76.70;;;7.32;58.69;96508.63;5059098;28;20621;-84
2021/03/01 10:26:16;;;;;;;30.42;19.50;;;7.50;76.90;;;7.45;58.71;96517.06;5050036;28;20270;-84
2021/03/01 10:28:50;;;;;;;32.38;19.55;;;7.60;76.90;;;7.58;58.37;96514.22;5065879;28;20202;-83
2021/03/01 10:31:19;;;;;;;34.20;21.02;;;7.60;76.80;;;7.70;58.38;96514.94;5069663;28;20704;-84
2021/03/01 10:34:02;;;;;;;33.50;20.27;;;7.80;76.90;;;7.81;58.43;96516.59;5054448;28;20190;-84
2021/03/01 10:36:55;;;;;;;34.17;19.17;;;7.90;76.80;;;7.89;58.48;96514.16;5047055;28;20641;-83
2021/03/01 10:39:38;;;;;;;28.90;18.65;;;8.00;77.20;;;8.00;58.37;96515.81;5055732;28;20199;-84